MET'MAP v2.0
soon released !

Expected late october,
this new version will be
more efficient, smarter,
and hosted on a brand new
server x3 powerfull...
...and still free !


Not compatible ?
Try the mobile version !

LOG IN : | Subscribe | Disclaimer | Who is Orbifly ? |
ICAO code :

TAF - DAUL Laghouat Airport - 17 Feb 2020 17:34 UTC - Data Source NOAA   


- Airport Elevation : 2510 ft
- IATA code : LOO
- No reported NOTAMs.


DAUL - Laghouat Airport

Latest METAR recorded : 2015/08/11 08:00 DAUL 110800Z 00000KT 9999 FEW030 SCT080 29/16 Q1019
TAF TAF DAUL
Valid from the 17 at 15:00 until the 18 at 00:00 UTC


171400Z 1715/1724 08008KT CAVOK

Source NOAA


MET'MAP, your aeronautical weather chart ! - Copyright ORBIFLY December 2007

Programming & Development : Alexandra Zaïnal
Co-Developer : Marc-Olivier Méhu
Technical & hardware support : Manuel Goepfert
Concept & Financing : Baudouin d'Aumeries